Time;durP1;ratioP1;P1;durP2;ratioP2;P2;SDS_P1;SDS_P2;PMS_P1;PMS_P2;Temp;Humidity;BMP_temperature;BMP_pressure;BME280_temperature;BME280_humidity;BME280_pressure;Samples;Min_cycle;Max_cycle;Signal;HPM_P1;HPM_P2
2022/09/29 00:00:37;;;;;;;3.03;1.87;;;11.70;93.70;;;;;;5114860;28;20456;-67
2022/09/29 00:03:04;;;;;;;2.33;2.13;;;11.60;93.60;;;;;;5115041;28;20452;-67
2022/09/29 00:05:31;;;;;;;3.70;2.23;;;11.60;93.60;;;;;;5114776;28;20474;-67
2022/09/29 00:07:58;;;;;;;5.27;2.30;;;11.60;93.50;;;;;;5114330;28;21017;-67
2022/09/29 00:10:25;;;;;;;2.13;1.90;;;11.60;93.50;;;;;;5114700;28;20454;-67
2022/09/29 00:12:51;;;;;;;2.03;1.93;;;11.60;93.50;;;;;;5114392;28;20948;-67
2022/09/29 00:15:18;;;;;;;3.50;2.07;;;11.60;93.50;;;;;;5114192;28;20470;-67
2022/09/29 00:17:46;;;;;;;3.87;2.50;;;11.50;93.30;;;;;;5114211;28;20958;-67
2022/09/29 00:20:13;;;;;;;2.77;2.57;;;11.50;93.10;;;;;;5114061;28;20996;-67
2022/09/29 00:22:40;;;;;;;5.50;2.43;;;11.50;93.10;;;;;;5114375;28;20442;-67
2022/09/29 00:25:07;;;;;;;2.90;2.10;;;11.50;93.20;;;;;;5114268;28;20475;-67
2022/09/29 00:27:34;;;;;;;4.23;2.30;;;11.40;93.10;;;;;;5113925;28;21002;-67
2022/09/29 00:30:00;;;;;;;5.30;2.30;;;11.40;93.10;;;;;;5114512;28;20455;-67
2022/09/29 00:32:27;;;;;;;3.63;1.97;;;11.40;93.10;;;;;;5114418;28;20459;-67
2022/09/29 00:34:55;;;;;;;2.00;1.90;;;11.40;93.00;;;;;;5113934;28;21003;-67
2022/09/29 00:37:22;;;;;;;3.00;2.43;;;11.30;92.90;;;;;;5114740;28;20453;-67
2022/09/29 00:39:49;;;;;;;3.10;2.80;;;11.30;92.90;;;;;;5113841;28;20457;-67
2022/09/29 00:42:19;;;;;;;2.40;1.90;;;11.30;92.90;;;;;;5114125;28;20542;-67
2022/09/29 00:45:14;;;;;;;2.07;1.87;;;11.30;92.70;;;;;;5114181;28;20453;-67
2022/09/29 00:47:43;;;;;;;3.93;2.20;;;11.20;92.40;;;;;;5112479;28;20486;-67
2022/09/29 00:50:16;;;;;;;5.30;2.30;;;11.20;92.30;;;;;;5114401;28;20459;-67
2022/09/29 00:52:45;;;;;;;2.83;2.63;;;;;;;;;;5114917;27;20444;-67
2022/09/29 00:55:18;;;;;;;6.43;2.50;;;11.10;92.10;;;;;;5113865;28;20474;-67
2022/09/29 00:57:49;;;;;;;4.70;3.43;;;11.10;92.30;;;;;;5115301;28;20433;-67
2022/09/29 01:00:17;;;;;;;8.93;3.50;;;11.10;92.40;;;;;;5115634;28;20452;-67
2022/09/29 01:02:49;;;;;;;5.73;3.20;;;11.10;92.60;;;;;;5114089;28;20449;-67
2022/09/29 01:05:21;;;;;;;6.07;4.10;;;11.10;93.00;;;;;;5114289;28;20811;-67
2022/09/29 01:07:49;;;;;;;6.17;3.60;;;11.10;92.80;;;;;;5114382;27;20489;-67
2022/09/29 01:10:18;;;;;;;6.47;3.20;;;11.00;92.70;;;;;;5113940;28;20446;-67
2022/09/29 01:12:46;;;;;;;4.03;3.20;;;11.00;92.60;;;;;;5113966;28;20452;-67
2022/09/29 01:15:15;;;;;;;8.07;3.10;;;10.90;92.30;;;;;;5113864;28;20476;-67
2022/09/29 01:17:42;;;;;;;10.37;3.57;;;10.90;92.20;;;;;;5113421;28;20456;-67
2022/09/29 01:20:14;;;;;;;9.73;3.33;;;10.90;92.20;;;;;;5113882;28;20503;-67
2022/09/29 01:23:11;;;;;;;9.90;4.20;;;10.90;92.10;;;;;;5113959;28;20434;-67
2022/09/29 01:26:00;;;;;;;8.13;3.37;;;10.90;92.20;;;;;;5113969;28;20498;-67
2022/09/29 01:29:06;;;;;;;5.80;3.50;;;10.80;92.30;;;;;;5113910;28;20473;-67
2022/09/29 01:31:42;;;;;;;4.27;3.67;;;10.80;92.40;;;;;;5114091;28;20457;-66
2022/09/29 01:34:16;;;;;;;12.30;4.07;;;10.80;92.30;;;;;;5114701;28;20417;-67
2022/09/29 01:36:52;;;;;;;7.30;3.77;;;10.80;92.10;;;;;;5114060;28;20472;-67
2022/09/29 01:39:26;;;;;;;5.80;4.10;;;10.70;92.00;;;;;;5114708;27;20466;-68
2022/09/29 01:41:58;;;;;;;7.17;4.37;;;10.70;92.00;;;;;;5114366;28;20438;-67
2022/09/29 01:44:31;;;;;;;9.57;4.37;;;10.60;91.90;;;;;;5114000;28;20541;-67
2022/09/29 01:47:05;;;;;;;7.43;3.70;;;10.60;91.70;;;;;;5113822;28;20485;-67
2022/09/29 01:49:37;;;;;;;6.93;3.50;;;10.60;92.00;;;;;;5113571;28;20468;-66
2022/09/29 01:52:10;;;;;;;16.63;4.10;;;10.60;92.10;;;;;;5113573;28;20436;-67
2022/09/29 01:54:44;;;;;;;10.37;4.00;;;10.60;92.10;;;;;;5113470;28;20434;-66
2022/09/29 01:57:15;;;;;;;8.37;4.37;;;10.60;92.20;;;;;;5113369;28;20462;-66
2022/09/29 01:59:47;;;;;;;14.40;4.43;;;10.60;92.30;;;;;;5113435;28;20794;-66
2022/09/29 02:02:20;;;;;;;5.50;4.03;;;10.60;92.30;;;;;;5113427;28;20433;-66
2022/09/29 02:04:51;;;;;;;10.63;5.00;;;10.50;92.20;;;;;;5113361;28;20426;-67
2022/09/29 02:07:21;;;;;;;8.00;3.80;;;10.50;92.10;;;;;;5115653;28;20445;-66
2022/09/29 02:09:52;;;;;;;7.93;4.03;;;10.50;92.00;;;;;;5116639;27;20489;-66
2022/09/29 02:12:25;;;;;;;4.77;4.00;;;10.40;91.90;;;;;;5116964;28;20441;-66
2022/09/29 02:14:53;;;;;;;7.37;4.23;;;10.40;91.80;;;;;;5117010;28;20428;-66
2022/09/29 02:17:26;;;;;;;4.63;3.67;;;10.40;91.70;;;;;;5116442;28;20958;-66
2022/09/29 02:19:53;;;;;;;10.50;4.00;;;10.40;91.70;;;;;;5116815;28;20424;-66
2022/09/29 02:22:20;;;;;;;7.07;4.33;;;10.30;91.60;;;;;;5116705;28;20463;-66
2022/09/29 02:24:48;;;;;;;11.23;4.70;;;10.30;91.70;;;;;;5116205;27;20440;-66
2022/09/29 02:27:15;;;;;;;9.43;5.03;;;10.30;92.10;;;;;;5116599;28;20457;-67
2022/09/29 02:29:42;;;;;;;7.40;5.07;;;10.30;91.80;;;;;;5113566;28;20476;-66
2022/09/29 02:32:09;;;;;;;9.23;4.70;;;10.30;91.80;;;;;;5096188;28;20448;-66
2022/09/29 02:34:41;;;;;;;8.10;5.37;;;10.30;91.70;;;;;;5096229;28;20469;-66
2022/09/29 02:37:19;;;;;;;6.93;4.97;;;10.30;91.70;;;;;;5096036;28;20444;-67
2022/09/29 02:39:54;;;;;;;7.97;4.80;;;10.20;91.60;;;;;;5095710;28;20470;-66
2022/09/29 02:42:28;;;;;;;5.53;4.93;;;10.20;91.60;;;;;;5096217;28;20429;-66
2022/09/29 02:45:22;;;;;;;7.80;5.43;;;10.20;91.60;;;;;;5095870;28;20466;-66
2022/09/29 02:48:07;;;;;;;6.00;5.30;;;10.20;91.60;;;;;;5095756;28;20430;-67
2022/09/29 02:51:02;;;;;;;6.00;5.40;;;10.10;97.00;;;;;;5095564;28;20878;-67
2022/09/29 02:53:39;;;;;;;5.30;4.80;;;10.10;96.20;;;;;;5095820;28;20429;-67
2022/09/29 02:56:11;;;;;;;11.73;4.63;;;10.10;95.80;;;;;;5095292;28;20997;-66
2022/09/29 02:58:46;;;;;;;11.03;5.30;;;10.10;95.60;;;;;;5095729;28;20835;-66
2022/09/29 03:01:15;;;;;;;9.00;5.23;;;10.10;95.10;;;;;;5095615;28;20435;-66
2022/09/29 03:03:41;;;;;;;6.47;5.20;;;10.00;94.60;;;;;;5095339;28;20456;-66
2022/09/29 03:06:11;;;;;;;6.03;5.43;;;10.00;94.30;;;;;;5095384;28;20471;-67
2022/09/29 03:08:38;;;;;;;5.33;4.83;;;10.00;94.10;;;;;;5095380;28;20489;-66
2022/09/29 03:11:05;;;;;;;5.50;5.07;;;10.00;93.90;;;;;;5095381;28;20818;-66
2022/09/29 03:13:31;;;;;;;7.17;5.60;;;10.00;93.60;;;;;;5095828;28;20465;-66
2022/09/29 03:15:58;;;;;;;7.10;5.80;;;9.90;91.80;;;;;;5095382;28;20475;-66
2022/09/29 03:18:26;;;;;;;6.90;5.47;;;9.90;91.70;;;;;;5094829;28;20442;-67
2022/09/29 03:20:54;;;;;;;9.30;5.50;;;9.90;91.70;;;;;;5095344;28;20457;-66
2022/09/29 03:23:22;;;;;;;13.50;5.23;;;9.90;91.70;;;;;;5095391;28;20448;-67
2022/09/29 03:25:49;;;;;;;5.60;5.10;;;9.80;91.60;;;;;;5095785;28;20475;-66
2022/09/29 03:28:16;;;;;;;5.23;4.73;;;9.80;91.60;;;;;;5096420;28;20481;-66
2022/09/29 03:30:43;;;;;;;7.40;5.33;;;9.80;91.50;;;;;;5096066;28;20960;-68
2022/09/29 03:33:11;;;;;;;5.83;5.00;;;9.80;91.50;;;;;;5095543;28;20559;-67
2022/09/29 03:35:37;;;;;;;5.50;4.83;;;9.70;91.50;;;;;;5094739;28;20464;-67
2022/09/29 03:38:04;;;;;;;6.33;4.80;;;9.70;91.60;;;;;;5094978;28;20464;-67
2022/09/29 03:40:32;;;;;;;7.03;5.53;;;9.70;92.20;;;;;;5094518;28;20950;-66
2022/09/29 03:42:59;;;;;;;5.57;4.83;;;9.70;91.90;;;;;;5094791;28;20445;-66
2022/09/29 03:45:26;;;;;;;7.13;4.43;;;9.70;93.60;;;;;;5094705;28;20476;-66
2022/09/29 03:47:52;;;;;;;5.80;5.23;;;9.70;92.10;;;;;;5094627;28;20458;-66
2022/09/29 03:50:19;;;;;;;5.00;4.50;;;9.70;92.60;;;;;;5094625;28;20487;-66
2022/09/29 03:52:46;;;;;;;5.23;4.77;;;9.70;92.10;;;;;;5094578;28;20444;-65
2022/09/29 03:55:12;;;;;;;5.20;4.60;;;9.60;92.60;;;;;;5094573;28;20472;-66
2022/09/29 03:57:40;;;;;;;5.73;5.23;;;9.60;92.40;;;;;;5094503;28;20434;-65
2022/09/29 04:00:09;;;;;;;5.57;5.07;;;9.60;92.90;;;;;;5094122;28;20836;-66
2022/09/29 04:02:35;;;;;;;5.70;5.20;;;9.60;92.00;;;;;;5095154;28;20460;-66
2022/09/29 04:05:02;;;;;;;6.70;5.60;;;9.60;92.30;;;;;;5094062;28;20999;-66
2022/09/29 04:07:30;;;;;;;5.60;5.20;;;9.60;92.40;;;;;;5094313;28;20439;-66
2022/09/29 04:09:57;;;;;;;5.23;4.83;;;9.60;92.40;;;;;;5094216;28;20489;-66
2022/09/29 04:12:23;;;;;;;5.40;5.00;;;9.60;92.60;;;;;;5094292;28;20460;-66
2022/09/29 04:14:51;;;;;;;5.53;4.90;;;9.60;92.60;;;;;;5094284;28;20456;-67
2022/09/29 04:17:19;;;;;;;5.37;4.87;;;9.50;92.50;;;;;;5094099;28;20453;-66
2022/09/29 04:19:45;;;;;;;5.13;4.63;;;9.50;92.40;;;;;;5094460;28;20559;-66
2022/09/29 04:22:15;;;;;;;5.13;4.80;;;9.50;92.40;;;;;;5094301;28;20461;-66
2022/09/29 04:24:42;;;;;;;5.87;4.77;;;9.50;92.30;;;;;;5094224;28;20467;-67
2022/09/29 04:27:09;;;;;;;4.63;4.33;;;9.50;92.20;;;;;;5094522;28;20448;-67
2022/09/29 04:29:35;;;;;;;9.47;4.80;;;9.50;92.20;;;;;;5093865;28;20846;-66
2022/09/29 04:32:04;;;;;;;5.60;5.10;;;9.40;92.10;;;;;;5094186;28;20453;-66
2022/09/29 04:34:31;;;;;;;5.40;4.87;;;9.50;92.10;;;;;;5094393;28;20452;-67
2022/09/29 04:36:58;;;;;;;5.17;4.77;;;9.30;92.00;;;;;;5093803;28;20469;-66
2022/09/29 04:39:24;;;;;;;5.77;5.17;;;9.20;92.10;;;;;;5093637;28;20455;-66
2022/09/29 04:41:51;;;;;;;5.10;3.87;;;9.30;93.60;;;;;;5093810;28;20448;-67
2022/09/29 04:44:19;;;;;;;5.90;5.43;;;9.30;94.20;;;;;;5093435;28;20456;-67
2022/09/29 04:46:45;;;;;;;4.93;4.30;;;9.20;93.90;;;;;;5093708;28;20490;-66
2022/09/29 04:49:13;;;;;;;6.03;5.43;;;9.20;93.90;;;;;;5093539;28;20480;-66
2022/09/29 04:51:40;;;;;;;4.97;4.47;;;9.20;93.70;;;;;;5093320;28;20452;-66
2022/09/29 04:54:07;;;;;;;4.63;4.23;;;9.20;93.40;;;;;;5093621;28;20448;-66
2022/09/29 04:56:33;;;;;;;4.83;4.43;;;9.20;93.10;;;;;;5093480;28;20476;-66
2022/09/29 04:59:00;;;;;;;5.63;5.13;;;9.10;92.80;;;;;;5093545;28;20444;-66
2022/09/29 05:01:28;;;;;;;6.30;4.90;;;9.10;92.70;;;;;;5093576;28;20444;-66
2022/09/29 05:03:55;;;;;;;8.43;6.40;;;9.10;92.60;;;;;;5093463;28;20546;-66
2022/09/29 05:06:23;;;;;;;8.03;5.73;;;9.00;92.30;;;;;;5093329;28;20480;-66
2022/09/29 05:08:50;;;;;;;7.10;6.40;;;9.00;92.00;;;;;;5093218;28;20874;-66
2022/09/29 05:11:17;;;;;;;8.57;7.87;;;9.00;91.90;;;;;;5093515;28;20454;-66
2022/09/29 05:13:43;;;;;;;8.80;7.90;;;9.00;91.80;;;;;;5093160;28;20460;-66
2022/09/29 05:16:10;;;;;;;8.57;7.77;;;9.00;91.80;;;;;;5093403;28;20468;-66
2022/09/29 05:18:37;;;;;;;8.93;7.40;;;9.00;91.70;;;;;;5093362;28;20440;-66
2022/09/29 05:21:04;;;;;;;8.63;7.43;;;9.00;91.70;;;;;;5093575;28;20450;-66
2022/09/29 05:23:33;;;;;;;7.53;6.83;;;9.00;91.70;;;;;;5093327;28;20454;-66
2022/09/29 05:26:03;;;;;;;8.80;7.90;;;9.00;91.70;;;;;;5093219;28;20483;-67
2022/09/29 05:28:30;;;;;;;9.93;7.83;;;8.90;91.60;;;;;;5093314;28;20448;-66
2022/09/29 05:31:01;;;;;;;8.40;6.90;;;8.90;91.60;;;;;;5093189;28;20503;-66
2022/09/29 05:33:28;;;;;;;7.87;7.07;;;8.90;91.70;;;;;;5093421;28;20439;-66
2022/09/29 05:35:55;;;;;;;7.80;7.00;;;8.90;91.70;;;;;;5093266;28;20474;-67
2022/09/29 05:38:22;;;;;;;12.00;7.70;;;8.90;91.80;;;;;;5093212;28;20459;-66
2022/09/29 05:40:50;;;;;;;7.00;6.30;;;8.90;91.90;;;;;;5095227;28;20460;-66
2022/09/29 05:43:17;;;;;;;10.83;5.90;;;8.90;91.80;;;;;;5097371;28;20468;-66
2022/09/29 05:45:43;;;;;;;6.43;5.77;;;8.80;91.80;;;;;;5097122;28;20471;-66
2022/09/29 05:48:10;;;;;;;7.27;6.53;;;8.90;91.90;;;;;;5097040;28;20481;-67
2022/09/29 05:50:40;;;;;;;10.70;5.37;;;8.80;91.80;;;;;;5097307;28;20482;-67
2022/09/29 05:53:07;;;;;;;6.27;5.47;;;8.90;92.00;;;;;;5097013;28;20440;-67
2022/09/29 05:55:34;;;;;;;10.00;7.43;;;8.80;91.90;;;;;;5097672;28;20479;-67
2022/09/29 05:58:02;;;;;;;10.53;6.40;;;8.80;92.00;;;;;;5097742;28;20439;-67
2022/09/29 06:00:30;;;;;;;10.87;5.80;;;8.80;91.90;;;;;;5097746;28;20808;-67
2022/09/29 06:02:58;;;;;;;7.50;6.13;;;8.80;91.90;;;;;;5096943;28;20453;-68
2022/09/29 06:05:25;;;;;;;7.10;5.90;;;8.90;92.00;;;;;;5096777;28;20467;-67
2022/09/29 06:07:52;;;;;;;7.30;5.40;;;8.90;92.10;;;;;;5096637;28;20452;-67
2022/09/29 06:10:19;;;;;;;7.30;6.60;;;8.90;92.20;;;;;;5096562;28;20490;-67
2022/09/29 06:12:46;;;;;;;11.33;6.80;;;8.90;92.30;;;;;;5096512;28;20965;-67
2022/09/29 06:15:14;;;;;;;7.90;7.10;;;8.90;92.40;;;;;;5096190;28;20837;-67
2022/09/29 06:17:41;;;;;;;7.83;7.00;;;8.90;92.60;;;;;;5096498;28;20535;-67
2022/09/29 06:20:08;;;;;;;7.13;6.40;;;8.90;92.70;;;;;;5096531;28;20444;-67
2022/09/29 06:22:35;;;;;;;8.13;7.50;;;8.90;92.70;;;;;;5096102;28;20941;-67
2022/09/29 06:25:02;;;;;;;8.40;7.70;;;8.90;92.80;;;;;;5096073;28;20571;-69
2022/09/29 06:27:29;;;;;;;8.00;7.20;;;8.90;92.90;;;;;;5096023;28;20825;-69
2022/09/29 06:29:55;;;;;;;9.73;7.87;;;8.90;93.00;;;;;;5095840;28;20487;-69
2022/09/29 06:32:23;;;;;;;7.83;6.50;;;8.90;93.10;;;;;;5095934;28;20950;-65
2022/09/29 06:37:34;;;;;;;8.13;6.37;;;9.00;93.70;;;;;;5096411;28;20941;-67
2022/09/29 06:40:01;;;;;;;9.47;6.73;;;9.00;93.40;;;;;;5096010;28;20459;-65
2022/09/29 06:42:28;;;;;;;7.00;6.20;;;9.00;93.40;;;;;;5095625;28;20814;-65
2022/09/29 06:44:55;;;;;;;10.97;7.30;;;9.10;93.60;;;;;;5095825;28;20483;-65
2022/09/29 06:47:23;;;;;;;8.10;7.07;;;9.10;93.70;;;;;;5095572;28;20972;-65
2022/09/29 06:49:50;;;;;;;9.50;6.70;;;9.10;93.80;;;;;;5095854;28;20571;-65
2022/09/29 06:52:17;;;;;;;8.40;7.50;;;9.10;94.10;;;;;;5094658;28;20850;-65
2022/09/29 06:54:44;;;;;;;13.23;7.17;;;9.20;94.40;;;;;;5095590;28;20490;-66
2022/09/29 06:57:11;;;;;;;8.30;7.60;;;9.20;95.20;;;;;;5095689;28;20448;-65
2022/09/29 06:59:37;;;;;;;9.73;7.73;;;9.20;95.70;;;;;;5095724;28;20432;-65
2022/09/29 07:02:04;;;;;;;8.30;7.50;;;9.30;96.10;;;;;;5095590;28;20444;-65
2022/09/29 07:04:32;;;;;;;8.23;7.43;;;9.30;96.40;;;;;;5095646;28;20455;-65
2022/09/29 07:06:59;;;;;;;9.70;8.03;;;9.40;96.60;;;;;;5095980;28;20449;-65
2022/09/29 07:09:26;;;;;;;11.87;9.30;;;9.40;96.80;;;;;;5095518;28;20881;-65
2022/09/29 07:11:52;;;;;;;8.80;7.90;;;9.50;97.10;;;;;;5095448;28;20822;-65
2022/09/29 07:14:22;;;;;;;8.73;7.87;;;9.60;97.10;;;;;;5095480;28;20436;-65
2022/09/29 07:16:49;;;;;;;9.00;7.80;;;9.70;97.00;;;;;;5095375;28;21040;-65
2022/09/29 07:19:18;;;;;;;8.37;7.43;;;9.80;97.00;;;;;;5096253;28;20437;-65
2022/09/29 07:21:47;;;;;;;12.20;10.37;;;9.90;97.00;;;;;;5096006;28;20471;-65
2022/09/29 07:24:14;;;;;;;9.70;8.70;;;10.00;96.40;;;;;;5095638;28;20452;-66
2022/09/29 07:26:41;;;;;;;13.50;7.97;;;10.10;96.70;;;;;;5095552;28;20475;-65
2022/09/29 07:29:08;;;;;;;11.17;7.57;;;10.20;96.30;;;;;;5095020;28;20450;-65
2022/09/29 07:31:35;;;;;;;7.23;6.67;;;10.20;95.90;;;;;;5095006;28;20610;-65
2022/09/29 07:34:02;;;;;;;7.27;6.53;;;10.30;95.80;;;;;;5094983;28;20988;-65
2022/09/29 07:36:29;;;;;;;8.00;7.20;;;10.40;95.50;;;;;;5094866;28;20474;-65
2022/09/29 07:38:57;;;;;;;8.23;7.40;;;10.50;95.10;;;;;;5094705;28;20456;-65
2022/09/29 07:41:23;;;;;;;9.00;6.80;;;10.50;95.00;;;;;;5094495;28;20951;-65
2022/09/29 07:43:50;;;;;;;7.07;6.23;;;10.60;94.60;;;;;;5094770;28;20462;-65
2022/09/29 07:46:17;;;;;;;8.10;6.40;;;10.70;94.60;;;;;;5094619;28;20478;-65
2022/09/29 07:48:44;;;;;;;7.90;7.20;;;10.80;94.60;;;;;;5094681;28;20451;-65
2022/09/29 07:51:13;;;;;;;11.17;6.50;;;10.80;94.40;;;;;;5094564;28;20536;-65
2022/09/29 07:53:40;;;;;;;8.23;6.97;;;10.90;94.00;;;;;;5094624;28;20449;-65
2022/09/29 07:56:11;;;;;;;8.83;8.00;;;11.00;94.30;;;;;;5094139;28;20983;-65
2022/09/29 07:58:39;;;;;;;9.27;7.47;;;11.10;93.90;;;;;;5094490;28;20817;-65
2022/09/29 08:01:09;;;;;;;9.97;8.00;;;11.10;94.00;;;;;;5094459;28;20453;-65
2022/09/29 08:03:36;;;;;;;7.30;6.37;;;11.20;93.80;;;;;;5094418;28;20877;-65
2022/09/29 08:06:03;;;;;;;12.90;7.03;;;11.30;93.70;;;;;;5094294;28;20476;-65
2022/09/29 08:08:30;;;;;;;8.47;7.67;;;11.40;93.70;;;;;;5094045;28;20846;-65
2022/09/29 08:11:05;;;;;;;7.23;6.63;;;11.60;93.60;;;;;;5094348;28;20499;-65
2022/09/29 08:13:35;;;;;;;8.30;7.10;;;11.70;93.50;;;;;;5094359;28;20462;-65
2022/09/29 08:16:04;;;;;;;7.57;6.83;;;11.70;93.30;;;;;;5094058;28;20482;-65
2022/09/29 08:18:31;;;;;;;8.53;7.73;;;11.80;93.20;;;;;;5094181;28;20454;-65
2022/09/29 08:20:59;;;;;;;9.83;8.10;;;11.90;92.30;;;;;;5094175;28;20423;-65
2022/09/29 08:23:25;;;;;;;8.20;7.50;;;12.00;92.30;;;;;;5094438;28;20454;-65
2022/09/29 08:25:59;;;;;;;7.73;6.93;;;12.10;92.40;;;;;;5094342;28;20477;-65
2022/09/29 08:28:26;;;;;;;8.00;7.13;;;12.10;92.40;;;;;;5095742;28;20460;-65
2022/09/29 08:30:54;;;;;;;6.40;5.80;;;12.20;92.30;;;;;;5094847;28;20510;-65
2022/09/29 08:33:20;;;;;;;6.23;5.40;;;12.30;92.20;;;;;;5094045;28;20459;-65
2022/09/29 08:35:54;;;;;;;8.40;6.70;;;12.50;93.50;;;;;;5093502;28;20924;-66
2022/09/29 08:38:21;;;;;;;7.00;6.27;;;12.60;95.30;;;;;;5093620;28;20453;-65
2022/09/29 08:40:48;;;;;;;8.17;7.47;;;12.10;98.30;;;;;;5093825;28;20427;-65
2022/09/29 08:43:17;;;;;;;8.33;6.37;;;12.70;99.00;;;;;;5093759;28;20459;-65
2022/09/29 08:45:48;;;;;;;9.13;8.37;;;;;;;;;;5093900;28;20467;-65
2022/09/29 08:48:21;;;;;;;9.13;8.20;;;12.90;91.60;;;;;;5093689;28;20459;-65
2022/09/29 08:50:56;;;;;;;8.97;8.13;;;13.00;92.20;;;;;;5093655;28;20458;-65
2022/09/29 08:53:24;;;;;;;8.83;7.97;;;13.10;92.10;;;;;;5093804;28;20438;-65
2022/09/29 08:55:56;;;;;;;15.53;8.80;;;13.10;91.90;;;;;;5093587;28;20473;-66
2022/09/29 08:58:23;;;;;;;14.13;8.93;;;13.10;91.80;;;;;;5093520;28;20434;-66
2022/09/29 09:01:00;;;;;;;11.50;8.80;;;13.20;91.80;;;;;;5093262;28;20450;-66
2022/09/29 09:03:52;;;;;;;12.70;8.03;;;13.20;91.90;;;;;;5093592;28;20424;-65
2022/09/29 09:06:31;;;;;;;12.33;8.00;;;13.30;91.70;;;;;;5093129;28;21012;-66
2022/09/29 09:09:22;;;;;;;10.37;7.67;;;13.40;91.20;;;;;;5093103;28;20950;-66
2022/09/29 09:12:18;;;;;;;11.13;7.63;;;13.40;92.40;;;;;;5093434;28;20472;-66
2022/09/29 09:15:02;;;;;;;8.73;7.27;;;13.40;92.10;;;;;;5093799;28;20470;-66
2022/09/29 09:17:48;;;;;;;8.50;6.60;;;13.60;92.20;;;;;;5097570;28;20437;-65
2022/09/29 09:20:28;;;;;;;8.77;6.87;;;13.70;91.90;;;;;;5097607;28;20463;-65
2022/09/29 09:22:57;;;;;;;9.87;7.00;;;13.80;90.90;;;;;;5097592;28;20465;-65
2022/09/29 09:25:30;;;;;;;9.13;6.80;;;14.00;91.20;;;;;;5097641;28;20468;-66
2022/09/29 09:28:05;;;;;;;8.67;6.37;;;14.10;90.60;;;;;;5117813;28;20454;-65
2022/09/29 09:30:38;;;;;;;18.30;7.73;;;14.20;90.50;;;;;;5108081;28;20474;-66
2022/09/29 09:33:12;;;;;;;7.17;6.40;;;14.40;89.50;;;;;;5097035;28;20779;-65
2022/09/29 09:35:44;;;;;;;8.07;5.43;;;14.60;89.70;;;;;;5112418;28;20480;-65
2022/09/29 09:38:14;;;;;;;8.03;6.00;;;14.80;89.30;;;;;;5097406;28;20458;-67
2022/09/29 09:40:45;;;;;;;8.83;6.50;;;15.00;86.50;;;;;;5097236;28;20449;-67
2022/09/29 09:43:18;;;;;;;10.57;5.87;;;15.20;84.70;;;;;;5097152;28;20454;-67
2022/09/29 09:45:49;;;;;;;6.60;5.03;;;15.50;82.70;;;;;;5096474;28;20999;-67
2022/09/29 09:48:21;;;;;;;12.67;5.43;;;15.90;82.80;;;;;;5096571;28;20844;-67
2022/09/29 09:50:50;;;;;;;13.20;5.80;;;16.30;82.30;;;;;;5097060;28;20467;-67
2022/09/29 09:53:21;;;;;;;6.73;5.20;;;16.70;81.50;;;;;;5096997;28;20490;-67
2022/09/29 09:55:58;;;;;;;7.60;4.63;;;17.10;78.00;;;;;;5106833;28;20489;-67
2022/09/29 09:58:32;;;;;;;5.33;4.30;;;;;;;;;;5101008;28;20458;-67
2022/09/29 10:01:02;;;;;;;6.03;4.20;;;18.20;73.20;;;;;;5097792;28;20460;-67
2022/09/29 10:03:30;;;;;;;6.13;3.70;;;18.70;69.80;;;;;;5096843;28;20448;-68
2022/09/29 10:05:59;;;;;;;3.27;2.97;;;19.20;64.40;;;;;;5096945;28;20467;-68
2022/09/29 10:08:28;;;;;;;4.13;3.40;;;19.60;62.30;;;;;;5096970;28;20482;-68
2022/09/29 10:10:56;;;;;;;4.03;3.30;;;20.10;60.30;;;;;;5096635;28;20892;-68
2022/09/29 10:13:26;;;;;;;3.30;3.00;;;20.60;58.90;;;;;;5097505;28;20471;-68
2022/09/29 10:15:56;;;;;;;5.40;3.43;;;21.20;57.90;;;;;;5097449;28;20490;-68
2022/09/29 10:18:29;;;;;;;3.30;2.93;;;21.60;54.90;;;;;;5096700;28;20426;-68
2022/09/29 10:20:57;;;;;;;4.30;3.63;;;21.90;53.80;;;;;;5096513;28;20431;-68
2022/09/29 10:23:31;;;;;;;8.50;4.00;;;22.40;53.40;;;;;;5096404;28;20518;-66
2022/09/29 10:26:01;;;;;;;6.33;3.17;;;22.90;50.70;;;;;;5096180;28;20479;-66
2022/09/29 10:28:36;;;;;;;8.20;3.53;;;23.30;49.00;;;;;;5095248;28;20478;-66
2022/09/29 10:31:03;;;;;;;12.47;4.13;;;23.90;47.30;;;;;;5096154;28;20478;-66
2022/09/29 10:33:29;;;;;;;5.40;3.93;;;24.30;46.10;;;;;;5095999;28;20468;-66
2022/09/29 10:36:10;;;;;;;4.97;3.60;;;24.70;44.10;;;;;;5095828;28;20487;-66
2022/09/29 10:38:37;;;;;;;4.00;3.40;;;24.90;42.60;;;;;;5095871;28;20835;-66
2022/09/29 10:41:06;;;;;;;6.37;3.97;;;25.20;40.90;;;;;;5096034;28;20479;-66
2022/09/29 10:43:36;;;;;;;4.63;2.30;;;25.60;40.20;;;;;;5096012;28;20452;-66
2022/09/29 10:46:04;;;;;;;4.77;3.90;;;26.20;40.40;;;;;;5095909;28;20485;-66
2022/09/29 10:48:30;;;;;;;5.27;3.57;;;26.70;37.50;;;;;;5095780;28;20471;-66
2022/09/29 10:51:00;;;;;;;6.63;3.10;;;27.10;37.70;;;;;;5109132;28;20494;-66
2022/09/29 10:53:36;;;;;;;6.07;3.70;;;27.60;37.00;;;;;;5097982;28;20471;-66
2022/09/29 10:56:15;;;;;;;3.60;2.80;;;28.20;34.20;;;;;;5095547;28;20993;-66
2022/09/29 10:58:44;;;;;;;3.20;2.63;;;28.60;33.30;;;;;;5096046;28;20455;-66
2022/09/29 11:01:14;;;;;;;9.03;8.13;;;29.20;31.80;;;;;;5096113;28;20447;-66
2022/09/29 11:03:47;;;;;;;18.30;16.90;;;29.60;29.50;;;;;;5095532;28;20464;-66
2022/09/29 11:06:15;;;;;;;4.00;3.17;;;30.00;29.60;;;;;;5112694;28;20491;-66
2022/09/29 11:09:03;;;;;;;4.27;3.87;;;30.50;29.10;;;;;;5095543;28;20451;-66
2022/09/29 11:11:31;;;;;;;6.53;3.03;;;31.00;29.30;;;;;;5094990;28;20881;-66
2022/09/29 11:13:59;;;;;;;6.73;3.30;;;31.00;27.50;;;;;;5095432;28;20493;-66
2022/09/29 11:16:30;;;;;;;3.50;2.53;;;30.40;28.80;;;;;;5095179;28;20471;-66
2022/09/29 11:19:01;;;;;;;3.47;2.70;;;29.90;29.00;;;;;;5095338;28;20452;-66
2022/09/29 11:22:01;;;;;;;2.67;2.20;;;29.80;28.70;;;;;;5095512;28;20420;-66
2022/09/29 11:24:47;;;;;;;3.13;1.90;;;29.70;28.80;;;;;;5090504;28;20448;-66
2022/09/29 11:27:25;;;;;;;4.87;2.27;;;29.90;28.30;;;;;;5096207;28;20435;-66
2022/09/29 11:30:02;;;;;;;3.77;3.37;;;30.50;29.20;;;;;;5108968;28;20459;-66
2022/09/29 11:32:48;;;;;;;9.90;9.07;;;31.20;28.60;;;;;;5095082;28;20475;-66
2022/09/29 11:35:26;;;;;;;2.43;2.03;;;31.90;26.50;;;;;;5094894;28;20462;-66
2022/09/29 11:38:12;;;;;;;3.77;3.10;;;31.80;25.90;;;;;;5094685;28;20450;-66
2022/09/29 11:40:50;;;;;;;5.60;5.10;;;31.70;27.40;;;;;;5094946;28;20431;-66
2022/09/29 11:43:30;;;;;;;7.63;7.03;;;32.00;25.60;;;;;;5094637;28;20970;-66
2022/09/29 11:46:05;;;;;;;2.73;1.70;;;32.60;25.20;;;;;;5094639;28;20467;-66
2022/09/29 11:49:03;;;;;;;2.00;1.13;;;33.20;24.90;;;;;;5094682;28;20447;-66
2022/09/29 11:51:39;;;;;;;2.17;0.90;;;33.90;23.00;;;;;;5070108;28;20483;-66
2022/09/29 11:54:26;;;;;;;1.70;1.47;;;34.30;22.70;;;;;;5094355;28;20909;-66
2022/09/29 11:57:02;;;;;;;1.83;1.20;;;34.80;23.30;;;;;;5094548;28;20819;-66
2022/09/29 11:59:59;;;;;;;3.23;1.20;;;35.30;22.60;;;;;;5095474;28;20423;-66
2022/09/29 12:02:59;;;;;;;3.20;1.90;;;35.70;22.20;;;;;;5094147;28;20204;-66
2022/09/29 12:05:34;;;;;;;3.40;2.33;;;35.90;21.30;;;;;;5088699;28;20259;-67
2022/09/29 12:08:10;;;;;;;4.80;2.47;;;35.90;21.00;;;;;;5094484;28;20188;-66
2022/09/29 12:10:46;;;;;;;5.00;2.40;;;35.90;21.20;;;;;;5094552;28;20189;-66
2022/09/29 12:13:25;;;;;;;5.73;2.17;;;36.00;21.30;;;;;;5094307;28;20204;-66
2022/09/29 12:15:56;;;;;;;4.25;2.55;;;36.20;21.40;;;;;;5094136;28;20228;-66
2022/09/29 12:18:31;;;;;;;2.78;1.80;;;36.40;21.20;;;;;;5093981;28;20548;-66
2022/09/29 12:21:00;;;;;;;2.03;1.83;;;36.60;20.20;;;;;;5094186;28;20180;-66
2022/09/29 12:23:29;;;;;;;2.97;1.63;;;36.80;20.00;;;;;;5094046;28;20250;-66
2022/09/29 12:26:01;;;;;;;3.85;1.42;;;36.70;19.80;;;;;;5093989;28;20229;-66
2022/09/29 12:28:36;;;;;;;2.80;1.60;;;36.30;19.70;;;;;;5093767;28;20196;-66
2022/09/29 12:31:09;;;;;;;3.03;1.40;;;36.00;19.50;;;;;;5094006;28;20265;-66
2022/09/29 12:33:41;;;;;;;3.00;1.67;;;35.80;20.30;;;;;;5093949;28;20224;-66
2022/09/29 12:39:09;;;;;;;2.60;1.27;;;36.20;21.20;;;;;;5093505;28;20250;-66
2022/09/29 12:41:41;;;;;;;1.27;1.13;;;36.30;19.20;;;;;;5093942;28;20549;-67
2022/09/29 12:44:16;;;;;;;2.13;1.20;;;35.90;19.20;;;;;;5093974;28;20319;-66
2022/09/29 12:46:52;;;;;;;1.80;1.10;;;35.20;20.60;;;;;;5093333;28;20232;-66
2022/09/29 12:49:22;;;;;;;2.50;1.33;;;35.50;21.30;;;;;;5093843;28;20189;-66
2022/09/29 12:51:51;;;;;;;1.60;1.30;;;35.80;19.80;;;;;;5093499;28;20220;-66
2022/09/29 12:54:22;;;;;;;2.42;1.48;;;36.10;20.00;;;;;;5093889;28;20197;-66
2022/09/29 12:56:54;;;;;;;3.03;1.25;;;36.70;19.80;;;;;;5093945;28;20246;-66
2022/09/29 12:59:32;;;;;;;1.60;1.08;;;37.40;19.00;;;;;;5094057;28;20189;-66
2022/09/29 13:02:01;;;;;;;4.32;1.40;;;38.10;18.40;;;;;;5094818;28;20189;-67
2022/09/29 13:04:56;;;;;;;3.97;1.83;;;38.70;17.90;;;;;;5094059;28;20209;-67
2022/09/29 13:07:58;;;;;;;1.90;1.70;;;39.40;17.10;;;;;;5093991;28;20197;-67
2022/09/29 13:10:46;;;;;;;5.03;1.75;;;39.70;16.90;;;;;;5031243;28;20265;-66
2022/09/29 13:13:54;;;;;;;3.25;1.33;;;39.60;17.80;;;;;;5090134;28;20198;-67
2022/09/29 13:16:42;;;;;;;2.30;1.58;;;39.90;18.50;;;;;;5080000;28;20221;-67